sensor_id;sensor_type;location;lat;lon;timestamp;pressure;altitude;pressure_sealevel;temperature;humidity
33185;BME280;19550;42.872;25.494;2022-11-11T00:02:07;97506.84;;;4.05;100.00
33185;BME280;19550;42.872;25.494;2022-11-11T00:04:33;97505.34;;;3.97;100.00
33185;BME280;19550;42.872;25.494;2022-11-11T00:07:00;97503.09;;;3.94;100.00
33185;BME280;19550;42.872;25.494;2022-11-11T00:09:27;97508.16;;;4.03;100.00
33185;BME280;19550;42.872;25.494;2022-11-11T00:11:54;97512.94;;;4.12;100.00
33185;BME280;19550;42.872;25.494;2022-11-11T00:14:23;97504.81;;;4.17;100.00
33185;BME280;19550;42.872;25.494;2022-11-11T00:16:49;97510.16;;;4.07;100.00
33185;BME280;19550;42.872;25.494;2022-11-11T00:19:34;97500.84;;;4.08;100.00
33185;BME280;19550;42.872;25.494;2022-11-11T00:22:19;97494.28;;;4.09;100.00
33185;BME280;19550;42.872;25.494;2022-11-11T00:25:07;97498.63;;;4.05;100.00
33185;BME280;19550;42.872;25.494;2022-11-11T00:27:37;97501.34;;;4.05;100.00
33185;BME280;19550;42.872;25.494;2022-11-11T00:30:07;97499.53;;;3.94;100.00
33185;BME280;19550;42.872;25.494;2022-11-11T00:32:34;97509.25;;;4.02;100.00
33185;BME280;19550;42.872;25.494;2022-11-11T00:35:00;97502.28;;;3.94;100.00
33185;BME280;19550;42.872;25.494;2022-11-11T00:37:45;97502.69;;;3.86;100.00
33185;BME280;19550;42.872;25.494;2022-11-11T00:42:40;97506.25;;;3.86;100.00
33185;BME280;19550;42.872;25.494;2022-11-11T00:45:09;97504.63;;;3.85;100.00
33185;BME280;19550;42.872;25.494;2022-11-11T00:47:36;97498.78;;;3.82;100.00
33185;BME280;19550;42.872;25.494;2022-11-11T00:50:25;97496.66;;;3.50;100.00
33185;BME280;19550;42.872;25.494;2022-11-11T00:53:11;97487.59;;;3.50;100.00
33185;BME280;19550;42.872;25.494;2022-11-11T00:55:38;97481.78;;;3.46;100.00
33185;BME280;19550;42.872;25.494;2022-11-11T00:58:05;97486.00;;;3.54;100.00
33185;BME280;19550;42.872;25.494;2022-11-11T01:00:34;97489.09;;;3.57;100.00
33185;BME280;19550;42.872;25.494;2022-11-11T01:03:01;97488.44;;;3.50;100.00
33185;BME280;19550;42.872;25.494;2022-11-11T01:05:27;97484.34;;;3.53;100.00
33185;BME280;19550;42.872;25.494;2022-11-11T01:07:54;97488.25;;;3.57;100.00
33185;BME280;19550;42.872;25.494;2022-11-11T01:10:22;97490.25;;;3.62;100.00
33185;BME280;19550;42.872;25.494;2022-11-11T01:13:05;97490.25;;;3.62;100.00
33185;BME280;19550;42.872;25.494;2022-11-11T01:15:40;97480.03;;;3.57;100.00
33185;BME280;19550;42.872;25.494;2022-11-11T01:18:08;97480.34;;;3.60;100.00
33185;BME280;19550;42.872;25.494;2022-11-11T01:20:35;97482.44;;;3.70;100.00
33185;BME280;19550;42.872;25.494;2022-11-11T01:23:03;97482.28;;;3.77;100.00
33185;BME280;19550;42.872;25.494;2022-11-11T01:25:32;97481.25;;;3.83;100.00
33185;BME280;19550;42.872;25.494;2022-11-11T01:27:59;97469.94;;;3.79;100.00
33185;BME280;19550;42.872;25.494;2022-11-11T01:30:26;97476.84;;;3.82;100.00
33185;BME280;19550;42.872;25.494;2022-11-11T01:32:55;97469.31;;;3.72;100.00
33185;BME280;19550;42.872;25.494;2022-11-11T01:35:21;97473.38;;;3.70;100.00
33185;BME280;19550;42.872;25.494;2022-11-11T01:37:49;97470.22;;;3.61;100.00
33185;BME280;19550;42.872;25.494;2022-11-11T01:40:16;97472.66;;;3.57;100.00
33185;BME280;19550;42.872;25.494;2022-11-11T01:42:47;97469.97;;;3.63;100.00
33185;BME280;19550;42.872;25.494;2022-11-11T01:48:33;97472.81;;;3.34;100.00
33185;BME280;19550;42.872;25.494;2022-11-11T01:51:22;97460.53;;;3.37;100.00
33185;BME280;19550;42.872;25.494;2022-11-11T01:53:54;97459.84;;;3.30;100.00
33185;BME280;19550;42.872;25.494;2022-11-11T01:56:23;97463.91;;;3.27;100.00
33185;BME280;19550;42.872;25.494;2022-11-11T01:58:51;97449.56;;;3.37;100.00
33185;BME280;19550;42.872;25.494;2022-11-11T02:01:19;97461.25;;;3.49;100.00
33185;BME280;19550;42.872;25.494;2022-11-11T02:03:49;97462.25;;;3.59;100.00
33185;BME280;19550;42.872;25.494;2022-11-11T02:06:32;97460.69;;;3.64;100.00
33185;BME280;19550;42.872;25.494;2022-11-11T02:09:01;97460.16;;;3.67;100.00
33185;BME280;19550;42.872;25.494;2022-11-11T02:11:30;97459.19;;;3.56;100.00
33185;BME280;19550;42.872;25.494;2022-11-11T02:14:17;97457.22;;;3.51;100.00
33185;BME280;19550;42.872;25.494;2022-11-11T02:17:06;97461.34;;;3.37;100.00
33185;BME280;19550;42.872;25.494;2022-11-11T02:19:42;97456.38;;;3.51;100.00
33185;BME280;19550;42.872;25.494;2022-11-11T02:22:13;97461.34;;;3.54;100.00
33185;BME280;19550;42.872;25.494;2022-11-11T02:24:42;97459.78;;;3.58;100.00
33185;BME280;19550;42.872;25.494;2022-11-11T02:27:13;97462.91;;;3.67;100.00
33185;BME280;19550;42.872;25.494;2022-11-11T02:29:42;97456.88;;;3.65;100.00
33185;BME280;19550;42.872;25.494;2022-11-11T02:32:11;97460.69;;;3.64;100.00
33185;BME280;19550;42.872;25.494;2022-11-11T02:34:38;97461.59;;;3.69;100.00
33185;BME280;19550;42.872;25.494;2022-11-11T02:37:07;97465.09;;;3.65;100.00
33185;BME280;19550;42.872;25.494;2022-11-11T02:39:37;97453.78;;;3.61;100.00
33185;BME280;19550;42.872;25.494;2022-11-11T02:42:07;97466.81;;;3.54;100.00
33185;BME280;19550;42.872;25.494;2022-11-11T02:44:35;97459.19;;;3.39;100.00
33185;BME280;19550;42.872;25.494;2022-11-11T02:47:03;97461.59;;;3.36;100.00
33185;BME280;19550;42.872;25.494;2022-11-11T02:49:30;97474.31;;;3.25;100.00
33185;BME280;19550;42.872;25.494;2022-11-11T02:51:57;97465.56;;;3.28;100.00
33185;BME280;19550;42.872;25.494;2022-11-11T02:54:24;97470.06;;;3.17;100.00
33185;BME280;19550;42.872;25.494;2022-11-11T02:56:51;97470.22;;;3.28;100.00
33185;BME280;19550;42.872;25.494;2022-11-11T02:59:36;97464.25;;;3.31;100.00
33185;BME280;19550;42.872;25.494;2022-11-11T03:02:04;97467.75;;;3.43;100.00
33185;BME280;19550;42.872;25.494;2022-11-11T03:04:32;97466.00;;;3.37;100.00
33185;BME280;19550;42.872;25.494;2022-11-11T03:06:59;97462.41;;;3.53;100.00
33185;BME280;19550;42.872;25.494;2022-11-11T03:09:26;97467.91;;;3.36;100.00
33185;BME280;19550;42.872;25.494;2022-11-11T03:11:53;97459.44;;;3.38;100.00
33185;BME280;19550;42.872;25.494;2022-11-11T03:14:20;97459.44;;;3.38;100.00
33185;BME280;19550;42.872;25.494;2022-11-11T03:16:48;97461.03;;;3.50;100.00
33185;BME280;19550;42.872;25.494;2022-11-11T03:19:32;97448.81;;;3.58;100.00
33185;BME280;19550;42.872;25.494;2022-11-11T03:22:00;97458.44;;;3.60;100.00
33185;BME280;19550;42.872;25.494;2022-11-11T03:24:28;97447.16;;;3.57;100.00
33185;BME280;19550;42.872;25.494;2022-11-11T03:27:15;97459.19;;;3.56;100.00
33185;BME280;19550;42.872;25.494;2022-11-11T03:29:41;97447.56;;;3.66;100.00
33185;BME280;19550;42.872;25.494;2022-11-11T03:32:09;97450.69;;;3.74;100.00
33185;BME280;19550;42.872;25.494;2022-11-11T03:34:37;97451.75;;;3.73;100.00
33185;BME280;19550;42.872;25.494;2022-11-11T03:37:05;97454.84;;;3.77;100.00
33185;BME280;19550;42.872;25.494;2022-11-11T03:40:06;97459.34;;;3.83;100.00
33185;BME280;19550;42.872;25.494;2022-11-11T03:42:33;97448.44;;;3.88;100.00
33185;BME280;19550;42.872;25.494;2022-11-11T03:45:01;97457.06;;;3.96;100.00
33185;BME280;19550;42.872;25.494;2022-11-11T03:47:29;97457.91;;;3.97;100.00
33185;BME280;19550;42.872;25.494;2022-11-11T03:49:56;97466.19;;;4.02;100.00
33185;BME280;19550;42.872;25.494;2022-11-11T03:52:23;97460.03;;;4.12;100.00
33185;BME280;19550;42.872;25.494;2022-11-11T03:54:50;97457.53;;;4.10;100.00
33185;BME280;19550;42.872;25.494;2022-11-11T03:57:17;97466.91;;;4.14;100.00
33185;BME280;19550;42.872;25.494;2022-11-11T03:59:58;97468.56;;;4.15;100.00
33185;BME280;19550;42.872;25.494;2022-11-11T04:02:25;97471.72;;;4.24;100.00
33185;BME280;19550;42.872;25.494;2022-11-11T04:05:10;97466.88;;;4.31;100.00
33185;BME280;19550;42.872;25.494;2022-11-11T04:07:55;97470.50;;;4.36;100.00
33185;BME280;19550;42.872;25.494;2022-11-11T04:10:38;97471.63;;;4.40;100.00
33185;BME280;19550;42.872;25.494;2022-11-11T04:13:05;97471.19;;;4.49;100.00
33185;BME280;19550;42.872;25.494;2022-11-11T04:15:50;97475.56;;;4.45;100.00
33185;BME280;19550;42.872;25.494;2022-11-11T04:18:31;97464.25;;;4.63;100.00
33185;BME280;19550;42.872;25.494;2022-11-11T04:21:17;97459.03;;;4.66;100.00
33185;BME280;19550;42.872;25.494;2022-11-11T04:24:01;97471.84;;;4.77;100.00
33185;BME280;19550;42.872;25.494;2022-11-11T04:26:48;97468.00;;;4.78;100.00
33185;BME280;19550;42.872;25.494;2022-11-11T04:29:14;97458.97;;;4.83;100.00
33185;BME280;19550;42.872;25.494;2022-11-11T04:31:57;97460.44;;;4.91;100.00
33185;BME280;19550;42.872;25.494;2022-11-11T04:34:43;97465.53;;;5.04;100.00
33185;BME280;19550;42.872;25.494;2022-11-11T04:37:12;97464.78;;;5.13;100.00
33185;BME280;19550;42.872;25.494;2022-11-11T04:39:39;97468.41;;;5.19;100.00
33185;BME280;19550;42.872;25.494;2022-11-11T04:42:19;97464.84;;;5.18;100.00
33185;BME280;19550;42.872;25.494;2022-11-11T04:44:47;97472.72;;;5.37;100.00
33185;BME280;19550;42.872;25.494;2022-11-11T04:47:31;97454.31;;;5.37;100.00
33185;BME280;19550;42.872;25.494;2022-11-11T04:49:58;97466.75;;;5.45;100.00
33185;BME280;19550;42.872;25.494;2022-11-11T04:52:27;97463.78;;;5.51;100.00
33185;BME280;19550;42.872;25.494;2022-11-11T04:54:54;97466.19;;;5.48;100.00
33185;BME280;19550;42.872;25.494;2022-11-11T04:57:40;97464.78;;;5.45;100.00
33185;BME280;19550;42.872;25.494;2022-11-11T05:00:09;97474.44;;;5.48;100.00
33185;BME280;19550;42.872;25.494;2022-11-11T05:02:36;97467.38;;;5.57;100.00
33185;BME280;19550;42.872;25.494;2022-11-11T05:05:21;97472.13;;;5.67;100.00
33185;BME280;19550;42.872;25.494;2022-11-11T05:07:49;97474.63;;;5.68;100.00
33185;BME280;19550;42.872;25.494;2022-11-11T05:10:34;97476.63;;;5.78;100.00
33185;BME280;19550;42.872;25.494;2022-11-11T05:13:01;97483.53;;;5.85;100.00
33185;BME280;19550;42.872;25.494;2022-11-11T05:15:45;97485.28;;;5.91;100.00
33185;BME280;19550;42.872;25.494;2022-11-11T05:18:44;97483.66;;;5.95;100.00
33185;BME280;19550;42.872;25.494;2022-11-11T05:21:30;97483.66;;;5.95;100.00
33185;BME280;19550;42.872;25.494;2022-11-11T05:23:58;97495.19;;;5.92;100.00
33185;BME280;19550;42.872;25.494;2022-11-11T05:26:48;97488.63;;;5.98;100.00
33185;BME280;19550;42.872;25.494;2022-11-11T05:29:15;97489.53;;;6.09;100.00
33185;BME280;19550;42.872;25.494;2022-11-11T05:31:41;97493.47;;;6.23;100.00
33185;BME280;19550;42.872;25.494;2022-11-11T05:34:08;97500.97;;;6.33;100.00
33185;BME280;19550;42.872;25.494;2022-11-11T05:36:35;97499.28;;;6.32;100.00
33185;BME280;19550;42.872;25.494;2022-11-11T05:39:03;97495.75;;;6.36;100.00
33185;BME280;19550;42.872;25.494;2022-11-11T05:41:30;97502.13;;;6.42;100.00
33185;BME280;19550;42.872;25.494;2022-11-11T05:43:57;97498.81;;;6.45;100.00
33185;BME280;19550;42.872;25.494;2022-11-11T05:46:24;97514.06;;;6.58;100.00
33185;BME280;19550;42.872;25.494;2022-11-11T05:48:50;97511.88;;;6.65;100.00
33185;BME280;19550;42.872;25.494;2022-11-11T05:51:34;97511.06;;;6.69;100.00
33185;BME280;19550;42.872;25.494;2022-11-11T05:54:03;97518.50;;;6.69;100.00
33185;BME280;19550;42.872;25.494;2022-11-11T05:56:29;97524.84;;;6.69;100.00
33185;BME280;19550;42.872;25.494;2022-11-11T05:58:56;97515.25;;;6.77;100.00
33185;BME280;19550;42.872;25.494;2022-11-11T06:01:23;97520.19;;;6.75;100.00
33185;BME280;19550;42.872;25.494;2022-11-11T06:03:50;97516.09;;;6.88;100.00
33185;BME280;19550;42.872;25.494;2022-11-11T06:06:17;97523.31;;;6.99;100.00
33185;BME280;19550;42.872;25.494;2022-11-11T06:08:44;97526.06;;;6.99;100.00
33185;BME280;19550;42.872;25.494;2022-11-11T06:11:12;97521.38;;;6.99;100.00
33185;BME280;19550;42.872;25.494;2022-11-11T06:13:39;97522.78;;;7.07;100.00
33185;BME280;19550;42.872;25.494;2022-11-11T06:16:07;97534.41;;;7.14;100.00
33185;BME280;19550;42.872;25.494;2022-11-11T06:18:34;97537.16;;;7.19;100.00
33185;BME280;19550;42.872;25.494;2022-11-11T06:21:01;97538.28;;;7.23;100.00
33185;BME280;19550;42.872;25.494;2022-11-11T06:23:28;97540.53;;;7.31;100.00
33185;BME280;19550;42.872;25.494;2022-11-11T06:25:55;97534.72;;;7.33;100.00
33185;BME280;19550;42.872;25.494;2022-11-11T06:28:43;97543.31;;;7.46;100.00
33185;BME280;19550;42.872;25.494;2022-11-11T06:31:12;97548.28;;;7.49;100.00
33185;BME280;19550;42.872;25.494;2022-11-11T06:33:40;97554.94;;;7.64;100.00
33185;BME280;19550;42.872;25.494;2022-11-11T06:36:08;97560.16;;;7.65;100.00
33185;BME280;19550;42.872;25.494;2022-11-11T06:38:35;97559.63;;;7.68;100.00
33185;BME280;19550;42.872;25.494;2022-11-11T06:41:02;97558.53;;;7.74;100.00
33185;BME280;19550;42.872;25.494;2022-11-11T06:43:29;97562.97;;;7.95;100.00
33185;BME280;19550;42.872;25.494;2022-11-11T06:45:57;97544.47;;;8.06;100.00
33185;BME280;19550;42.872;25.494;2022-11-11T06:48:27;97548.34;;;8.10;100.00
33185;BME280;19550;42.872;25.494;2022-11-11T06:50:54;97569.06;;;8.23;100.00
33185;BME280;19550;42.872;25.494;2022-11-11T06:53:26;97577.31;;;8.28;100.00
33185;BME280;19550;42.872;25.494;2022-11-11T06:55:54;97580.66;;;8.30;100.00
33185;BME280;19550;42.872;25.494;2022-11-11T06:58:21;97565.19;;;8.29;100.00
33185;BME280;19550;42.872;25.494;2022-11-11T07:00:49;97569.63;;;8.40;100.00
33185;BME280;19550;42.872;25.494;2022-11-11T07:03:18;97576.25;;;8.44;100.00
33185;BME280;19550;42.872;25.494;2022-11-11T07:05:46;97570.13;;;8.52;100.00
33185;BME280;19550;42.872;25.494;2022-11-11T07:08:14;97575.41;;;8.54;100.00
33185;BME280;19550;42.872;25.494;2022-11-11T07:10:43;97580.84;;;8.89;100.00
33185;BME280;19550;42.872;25.494;2022-11-11T07:13:11;97582.66;;;9.29;100.00
33185;BME280;19550;42.872;25.494;2022-11-11T07:15:38;97573.91;;;9.61;100.00
33185;BME280;19550;42.872;25.494;2022-11-11T07:18:05;97571.47;;;9.93;100.00
33185;BME280;19550;42.872;25.494;2022-11-11T07:20:33;97583.56;;;10.08;100.00
33185;BME280;19550;42.872;25.494;2022-11-11T07:23:02;97584.75;;;10.35;100.00
33185;BME280;19550;42.872;25.494;2022-11-11T07:25:29;97578.59;;;10.44;100.00
33185;BME280;19550;42.872;25.494;2022-11-11T07:27:56;97587.88;;;10.58;100.00
33185;BME280;19550;42.872;25.494;2022-11-11T07:30:23;97594.22;;;10.63;100.00
33185;BME280;19550;42.872;25.494;2022-11-11T07:32:51;97591.97;;;10.65;100.00
33185;BME280;19550;42.872;25.494;2022-11-11T07:35:19;97594.72;;;10.65;100.00
33185;BME280;19550;42.872;25.494;2022-11-11T07:37:47;97591.69;;;10.67;100.00
33185;BME280;19550;42.872;25.494;2022-11-11T07:40:16;97598.28;;;10.71;100.00
33185;BME280;19550;42.872;25.494;2022-11-11T07:42:43;97586.34;;;10.75;100.00
33185;BME280;19550;42.872;25.494;2022-11-11T07:45:12;97593.81;;;10.75;100.00
33185;BME280;19550;42.872;25.494;2022-11-11T07:47:41;97587.16;;;10.76;100.00
33185;BME280;19550;42.872;25.494;2022-11-11T07:50:09;97597.44;;;10.70;100.00
33185;BME280;19550;42.872;25.494;2022-11-11T07:52:36;97603.31;;;10.69;100.00
33185;BME280;19550;42.872;25.494;2022-11-11T07:55:05;97607.47;;;10.66;100.00
33185;BME280;19550;42.872;25.494;2022-11-11T07:57:32;97602.00;;;10.61;100.00
33185;BME280;19550;42.872;25.494;2022-11-11T07:59:59;97606.44;;;10.62;100.00
33185;BME280;19550;42.872;25.494;2022-11-11T08:02:26;97614.25;;;10.55;100.00
33185;BME280;19550;42.872;25.494;2022-11-11T08:04:53;97606.00;;;10.45;100.00
33185;BME280;19550;42.872;25.494;2022-11-11T08:07:20;97611.56;;;10.45;100.00
33185;BME280;19550;42.872;25.494;2022-11-11T08:09:46;97611.88;;;10.44;100.00
33185;BME280;19550;42.872;25.494;2022-11-11T08:12:15;97601.88;;;10.43;100.00
33185;BME280;19550;42.872;25.494;2022-11-11T08:14:59;97611.59;;;10.40;100.00
33185;BME280;19550;42.872;25.494;2022-11-11T08:17:26;97614.69;;;10.33;100.00
33185;BME280;19550;42.872;25.494;2022-11-11T08:19:53;97630.78;;;10.31;100.00
33185;BME280;19550;42.872;25.494;2022-11-11T08:22:20;97623.34;;;10.27;100.00
33185;BME280;19550;42.872;25.494;2022-11-11T08:24:46;97627.28;;;10.21;100.00
33185;BME280;19550;42.872;25.494;2022-11-11T08:27:15;97629.75;;;10.22;100.00
33185;BME280;19550;42.872;25.494;2022-11-11T08:29:41;97630.59;;;10.18;100.00
33185;BME280;19550;42.872;25.494;2022-11-11T08:32:08;97631.75;;;10.17;100.00
33185;BME280;19550;42.872;25.494;2022-11-11T08:34:36;97633.38;;;10.18;100.00
33185;BME280;19550;42.872;25.494;2022-11-11T08:37:02;97634.50;;;10.17;100.00
33185;BME280;19550;42.872;25.494;2022-11-11T08:39:29;97641.69;;;10.18;100.00
33185;BME280;19550;42.872;25.494;2022-11-11T08:41:56;97632.50;;;10.27;100.00
33185;BME280;19550;42.872;25.494;2022-11-11T08:44:24;97651.56;;;10.34;100.00
33185;BME280;19550;42.872;25.494;2022-11-11T08:46:51;97649.56;;;10.40;100.00
33185;BME280;19550;42.872;25.494;2022-11-11T08:49:18;97628.59;;;10.28;100.00
33185;BME280;19550;42.872;25.494;2022-11-11T08:51:45;97657.00;;;10.44;100.00
33185;BME280;19550;42.872;25.494;2022-11-11T08:54:11;97666.16;;;10.45;100.00
33185;BME280;19550;42.872;25.494;2022-11-11T08:56:38;97664.19;;;10.50;100.00
33185;BME280;19550;42.872;25.494;2022-11-11T08:59:05;97666.09;;;10.55;100.00
33185;BME280;19550;42.872;25.494;2022-11-11T09:01:34;97678.25;;;10.59;100.00
33185;BME280;19550;42.872;25.494;2022-11-11T09:04:01;97668.31;;;10.53;100.00
33185;BME280;19550;42.872;25.494;2022-11-11T09:06:28;97672.44;;;10.60;100.00
33185;BME280;19550;42.872;25.494;2022-11-11T09:08:55;97663.03;;;10.56;100.00
33185;BME280;19550;42.872;25.494;2022-11-11T09:11:22;97669.03;;;10.68;100.00
33185;BME280;19550;42.872;25.494;2022-11-11T09:13:49;97676.53;;;10.68;100.00
33185;BME280;19550;42.872;25.494;2022-11-11T09:16:15;97668.22;;;10.68;100.00
33185;BME280;19550;42.872;25.494;2022-11-11T09:18:45;97665.97;;;10.70;100.00
33185;BME280;19550;42.872;25.494;2022-11-11T09:21:11;97667.09;;;10.69;100.00
33185;BME280;19550;42.872;25.494;2022-11-11T09:23:38;97667.91;;;10.69;100.00
33185;BME280;19550;42.872;25.494;2022-11-11T09:26:05;97661.53;;;10.69;100.00
33185;BME280;19550;42.872;25.494;2022-11-11T09:28:32;97662.59;;;10.73;100.00
33185;BME280;19550;42.872;25.494;2022-11-11T09:31:00;97670.38;;;10.71;100.00
33185;BME280;19550;42.872;25.494;2022-11-11T09:33:27;97664.34;;;10.64;100.00
33185;BME280;19550;42.872;25.494;2022-11-11T09:35:56;97659.88;;;10.68;100.00
33185;BME280;19550;42.872;25.494;2022-11-11T09:38:23;97649.03;;;10.71;100.00
33185;BME280;19550;42.872;25.494;2022-11-11T09:40:59;97668.09;;;10.83;100.00
33185;BME280;19550;42.872;25.494;2022-11-11T09:43:36;97651.66;;;10.87;100.00
33185;BME280;19550;42.872;25.494;2022-11-11T09:46:16;97647.72;;;10.93;100.00
33185;BME280;19550;42.872;25.494;2022-11-11T09:49:05;97645.22;;;10.91;100.00
33185;BME280;19550;42.872;25.494;2022-11-11T09:51:42;97649.81;;;10.77;100.00
33185;BME280;19550;42.872;25.494;2022-11-11T09:54:16;97643.47;;;10.71;100.00
33185;BME280;19550;42.872;25.494;2022-11-11T09:56:44;97643.75;;;10.75;100.00
33185;BME280;19550;42.872;25.494;2022-11-11T09:59:15;97650.13;;;10.75;100.00
33185;BME280;19550;42.872;25.494;2022-11-11T10:01:45;97644.66;;;10.65;100.00
33185;BME280;19550;42.872;25.494;2022-11-11T10:04:22;97646.41;;;10.56;100.00
33185;BME280;19550;42.872;25.494;2022-11-11T10:06:56;97617.19;;;10.35;100.00
33185;BME280;19550;42.872;25.494;2022-11-11T10:09:32;97633.72;;;10.50;100.00
33185;BME280;19550;42.872;25.494;2022-11-11T10:12:06;97638.94;;;10.52;100.00
33185;BME280;19550;42.872;25.494;2022-11-11T10:14:37;97634.31;;;10.42;100.00
33185;BME280;19550;42.872;25.494;2022-11-11T10:17:12;97632.66;;;10.41;100.00
33185;BME280;19550;42.872;25.494;2022-11-11T10:19:51;97629.94;;;10.36;100.00
33185;BME280;19550;42.872;25.494;2022-11-11T10:22:29;97633.22;;;10.38;100.00
33185;BME280;19550;42.872;25.494;2022-11-11T10:25:06;97636.31;;;10.37;100.00
33185;BME280;19550;42.872;25.494;2022-11-11T10:27:33;97643.47;;;10.38;100.00
33185;BME280;19550;42.872;25.494;2022-11-11T10:30:12;97642.69;;;10.37;100.00
33185;BME280;19550;42.872;25.494;2022-11-11T10:32:40;97630.78;;;10.37;100.00
33185;BME280;19550;42.872;25.494;2022-11-11T10:35:16;97637.97;;;10.32;100.00
33185;BME280;19550;42.872;25.494;2022-11-11T10:37:44;97634.66;;;10.30;100.00
33185;BME280;19550;42.872;25.494;2022-11-11T10:40:17;97622.22;;;10.28;100.00
33185;BME280;19550;42.872;25.494;2022-11-11T10:42:47;97621.13;;;10.24;100.00
33185;BME280;19550;42.872;25.494;2022-11-11T10:45:21;97627.78;;;10.28;100.00
33185;BME280;19550;42.872;25.494;2022-11-11T10:47:54;97610.06;;;10.24;100.00
33185;BME280;19550;42.872;25.494;2022-11-11T10:50:26;97625.00;;;10.28;100.00
33185;BME280;19550;42.872;25.494;2022-11-11T10:53:01;97619.69;;;10.31;100.00
33185;BME280;19550;42.872;25.494;2022-11-11T10:55:32;97625.28;;;10.26;100.00
33185;BME280;19550;42.872;25.494;2022-11-11T10:58:08;97618.34;;;10.29;100.00
33185;BME280;19550;42.872;25.494;2022-11-11T11:00:38;97616.09;;;10.31;100.00
33185;BME280;19550;42.872;25.494;2022-11-11T11:03:10;97620.34;;;10.23;100.00
33185;BME280;19550;42.872;25.494;2022-11-11T11:05:43;97627.78;;;10.28;100.00
33185;BME280;19550;42.872;25.494;2022-11-11T11:08:15;97627.50;;;10.24;100.00
33185;BME280;19550;42.872;25.494;2022-11-11T11:10:46;97627.28;;;10.16;100.00
33185;BME280;19550;42.872;25.494;2022-11-11T11:13:16;97636.72;;;10.15;100.00
33185;BME280;19550;42.872;25.494;2022-11-11T11:15:53;97630.09;;;10.06;100.00
33185;BME280;19550;42.872;25.494;2022-11-11T11:18:22;97625.44;;;10.01;100.00
33185;BME280;19550;42.872;25.494;2022-11-11T11:20:56;97626.28;;;10.02;100.00
33185;BME280;19550;42.872;25.494;2022-11-11T11:23:38;97629.06;;;9.96;100.00
33185;BME280;19550;42.872;25.494;2022-11-11T11:26:06;97632.97;;;9.95;100.00
33185;BME280;19550;42.872;25.494;2022-11-11T11:28:33;97634.03;;;10.00;100.00
33185;BME280;19550;42.872;25.494;2022-11-11T11:31:01;97636.75;;;10.05;100.00
33185;BME280;19550;42.872;25.494;2022-11-11T11:33:49;97630.69;;;10.03;100.00
33185;BME280;19550;42.872;25.494;2022-11-11T11:36:16;97629.34;;;9.95;100.00
33185;BME280;19550;42.872;25.494;2022-11-11T11:38:46;97629.63;;;9.93;100.00
33185;BME280;19550;42.872;25.494;2022-11-11T11:41:15;97628.78;;;9.98;100.00
33185;BME280;19550;42.872;25.494;2022-11-11T11:43:43;97633.47;;;9.97;100.00
33185;BME280;19550;42.872;25.494;2022-11-11T11:46:18;97649.06;;;9.88;100.00
33185;BME280;19550;42.872;25.494;2022-11-11T11:49:09;97645.19;;;9.89;100.00
33185;BME280;19550;42.872;25.494;2022-11-11T11:51:46;97651.31;;;9.81;100.00
33185;BME280;19550;42.872;25.494;2022-11-11T11:54:45;97651.34;;;9.76;100.00
33185;BME280;19550;42.872;25.494;2022-11-11T11:57:26;97649.09;;;9.78;100.00
33185;BME280;19550;42.872;25.494;2022-11-11T12:00:02;97649.34;;;9.87;100.00
33185;BME280;19550;42.872;25.494;2022-11-11T12:02:44;97651.59;;;9.80;100.00
33185;BME280;19550;42.872;25.494;2022-11-11T12:05:23;97647.44;;;9.82;100.00
33185;BME280;19550;42.872;25.494;2022-11-11T12:08:05;97646.88;;;9.80;100.00
33185;BME280;19550;42.872;25.494;2022-11-11T12:10:43;97651.88;;;9.83;100.00
33185;BME280;19550;42.872;25.494;2022-11-11T12:13:26;97655.16;;;9.85;100.00
33185;BME280;19550;42.872;25.494;2022-11-11T12:16:03;97651.84;;;9.88;100.00
33185;BME280;19550;42.872;25.494;2022-11-11T12:18:42;97653.78;;;9.88;100.00
33185;BME280;19550;42.872;25.494;2022-11-11T12:21:14;97648.19;;;9.93;100.00
33185;BME280;19550;42.872;25.494;2022-11-11T12:23:52;97651.25;;;9.91;100.00
33185;BME280;19550;42.872;25.494;2022-11-11T12:26:30;97641.00;;;9.92;100.00
33185;BME280;19550;42.872;25.494;2022-11-11T12:29:18;97650.44;;;9.86;100.00
33185;BME280;19550;42.872;25.494;2022-11-11T12:32:03;97650.16;;;9.87;100.00
33185;BME280;19550;42.872;25.494;2022-11-11T12:37:56;97645.19;;;9.84;100.00
33185;BME280;19550;42.872;25.494;2022-11-11T12:40:35;97654.91;;;9.82;100.00
33185;BME280;19550;42.872;25.494;2022-11-11T12:43:15;97649.91;;;9.84;100.00
33185;BME280;19550;42.872;25.494;2022-11-11T12:45:47;97657.69;;;9.82;100.00
33185;BME280;19550;42.872;25.494;2022-11-11T12:48:31;97653.28;;;9.76;100.00
33185;BME280;19550;42.872;25.494;2022-11-11T12:51:10;97666.56;;;9.74;100.00
33185;BME280;19550;42.872;25.494;2022-11-11T12:53:48;97657.75;;;9.67;100.00
33185;BME280;19550;42.872;25.494;2022-11-11T12:56:24;97663.00;;;9.68;100.00
33185;BME280;19550;42.872;25.494;2022-11-11T12:59:03;97666.84;;;9.72;100.00
33185;BME280;19550;42.872;25.494;2022-11-11T13:01:38;97669.06;;;9.75;100.00
33185;BME280;19550;42.872;25.494;2022-11-11T13:04:34;97667.44;;;9.64;100.00
33185;BME280;19550;42.872;25.494;2022-11-11T13:10:15;97661.34;;;9.67;100.00
33185;BME280;19550;42.872;25.494;2022-11-11T13:12:50;97671.28;;;9.73;100.00
33185;BME280;19550;42.872;25.494;2022-11-11T13:15:25;97671.56;;;9.72;100.00
33185;BME280;19550;42.872;25.494;2022-11-11T13:17:52;97672.41;;;9.67;100.00
33185;BME280;19550;42.872;25.494;2022-11-11T13:20:27;97665.78;;;9.68;100.00
33185;BME280;19550;42.872;25.494;2022-11-11T13:23:01;97660.25;;;9.68;100.00
33185;BME280;19550;42.872;25.494;2022-11-11T13:25:30;97665.81;;;9.63;100.00